sensor_id;sensor_type;location;lat;lon;timestamp;pressure;altitude;pressure_sealevel;temperature;humidity
68508;BME280;55510;49.560;19.090;2024-01-15T03:24:10;94477.28;;;-3.27;99.56
68508;BME280;55510;49.560;19.090;2024-01-15T03:27:11;94474.97;;;-3.03;99.09
68508;BME280;55510;49.560;19.090;2024-01-15T03:30:12;94482.72;;;-2.44;95.75
68508;BME280;55510;49.560;19.090;2024-01-15T03:33:13;94480.25;;;-1.68;91.87
68508;BME280;55510;49.560;19.090;2024-01-15T03:36:14;94478.78;;;-1.64;89.91
68508;BME280;55510;49.560;19.090;2024-01-15T03:39:14;94472.44;;;-1.49;89.67
68508;BME280;55510;49.560;19.090;2024-01-15T03:42:15;94471.03;;;-1.26;88.21
68508;BME280;55510;49.560;19.090;2024-01-15T03:45:16;94463.59;;;-1.48;87.87
68508;BME280;55510;49.560;19.090;2024-01-15T03:48:17;94463.34;;;-1.03;86.58
68508;BME280;55510;49.560;19.090;2024-01-15T03:51:17;94475.19;;;-1.00;86.18
68508;BME280;55510;49.560;19.090;2024-01-15T03:54:18;94458.41;;;-1.29;86.67
68508;BME280;55510;49.560;19.090;2024-01-15T03:57:19;94459.19;;;-1.29;86.84
68508;BME280;55510;49.560;19.090;2024-01-15T04:00:20;94458.50;;;-0.99;85.06
68508;BME280;55510;49.560;19.090;2024-01-15T04:03:21;94458.03;;;-1.33;86.41
68508;BME280;55510;49.560;19.090;2024-01-15T04:06:21;94452.16;;;-1.47;87.16
68508;BME280;55510;49.560;19.090;2024-01-15T04:09:22;94445.13;;;-1.47;86.77
68508;BME280;55510;49.560;19.090;2024-01-15T04:12:23;94444.84;;;-1.20;85.93
68508;BME280;55510;49.560;19.090;2024-01-15T04:15:24;94439.03;;;-1.22;85.77
68508;BME280;55510;49.560;19.090;2024-01-15T04:18:24;94440.34;;;-1.31;85.39
68508;BME280;55510;49.560;19.090;2024-01-15T04:21:25;94439.31;;;-1.11;85.22
68508;BME280;55510;49.560;19.090;2024-01-15T04:24:25;94449.41;;;-0.96;84.54
68508;BME280;55510;49.560;19.090;2024-01-15T04:27:26;94438.38;;;-0.98;84.79
68508;BME280;55510;49.560;19.090;2024-01-15T04:30:27;94441.03;;;-1.17;84.68
68508;BME280;55510;49.560;19.090;2024-01-15T04:33:27;94434.03;;;-1.05;84.02
68508;BME280;55510;49.560;19.090;2024-01-15T04:36:28;94437.81;;;-0.82;83.61
68508;BME280;55510;49.560;19.090;2024-01-15T04:39:29;94426.59;;;-1.01;83.72
68508;BME280;55510;49.560;19.090;2024-01-15T04:42:30;94431.00;;;-1.20;85.16
68508;BME280;55510;49.560;19.090;2024-01-15T04:45:31;94435.78;;;-1.17;84.75
68508;BME280;55510;49.560;19.090;2024-01-15T04:48:31;94428.09;;;-1.12;85.54
68508;BME280;55510;49.560;19.090;2024-01-15T04:51:32;94424.47;;;-1.11;84.60
68508;BME280;55510;49.560;19.090;2024-01-15T04:54:32;94421.88;;;-1.11;86.17
68508;BME280;55510;49.560;19.090;2024-01-15T04:57:33;94432.44;;;-1.06;85.72
68508;BME280;55510;49.560;19.090;2024-01-15T05:00:34;94431.00;;;-1.20;85.50
68508;BME280;55510;49.560;19.090;2024-01-15T05:03:35;94434.75;;;-1.35;87.12
68508;BME280;55510;49.560;19.090;2024-01-15T05:06:35;94435.06;;;-1.24;86.80
68508;BME280;55510;49.560;19.090;2024-01-15T05:09:36;94440.72;;;-1.09;86.19
68508;BME280;55510;49.560;19.090;2024-01-15T05:12:37;94442.59;;;-1.35;87.69
68508;BME280;55510;49.560;19.090;2024-01-15T05:15:37;94441.81;;;-1.35;88.77
68508;BME280;55510;49.560;19.090;2024-01-15T05:18:38;94432.44;;;-1.43;88.89
68508;BME280;55510;49.560;19.090;2024-01-15T05:21:39;94438.81;;;-1.39;88.06
68508;BME280;55510;49.560;19.090;2024-01-15T05:24:39;94436.78;;;-1.37;88.95
68508;BME280;55510;49.560;19.090;2024-01-15T05:27:40;94432.22;;;-1.23;88.40
68508;BME280;55510;49.560;19.090;2024-01-15T05:30:41;94428.38;;;-1.39;88.95
68508;BME280;55510;49.560;19.090;2024-01-15T05:33:41;94424.41;;;-1.41;88.99
68508;BME280;55510;49.560;19.090;2024-01-15T05:36:42;94414.63;;;-1.09;87.56
68508;BME280;55510;49.560;19.090;2024-01-15T05:39:43;94403.31;;;-1.21;88.59
68508;BME280;55510;49.560;19.090;2024-01-15T05:42:43;94408.47;;;-1.33;89.90
68508;BME280;55510;49.560;19.090;2024-01-15T05:45:44;94397.50;;;-1.05;88.53
68508;BME280;55510;49.560;19.090;2024-01-15T05:48:45;94397.72;;;-1.06;88.89
68508;BME280;55510;49.560;19.090;2024-01-15T05:51:45;94393.59;;;-1.14;89.01
68508;BME280;55510;49.560;19.090;2024-01-15T05:54:46;94391.81;;;-0.83;88.05
68508;BME280;55510;49.560;19.090;2024-01-15T05:57:47;94402.16;;;-1.25;90.19
68508;BME280;55510;49.560;19.090;2024-01-15T06:00:48;94407.50;;;-1.02;89.16
68508;BME280;55510;49.560;19.090;2024-01-15T06:03:50;94401.25;;;-0.82;88.48
68508;BME280;55510;49.560;19.090;2024-01-15T06:06:51;94398.31;;;-1.04;89.17
68508;BME280;55510;49.560;19.090;2024-01-15T06:09:51;94397.13;;;-0.90;88.57
68508;BME280;55510;49.560;19.090;2024-01-15T06:12:52;94395.47;;;-1.03;88.36
68508;BME280;55510;49.560;19.090;2024-01-15T06:15:53;94395.78;;;-1.29;89.64
68508;BME280;55510;49.560;19.090;2024-01-15T06:18:53;94406.84;;;-1.15;89.92
68508;BME280;55510;49.560;19.090;2024-01-15T06:21:54;94410.97;;;-1.08;90.16
68508;BME280;55510;49.560;19.090;2024-01-15T06:24:54;94409.63;;;-1.10;89.29
68508;BME280;55510;49.560;19.090;2024-01-15T06:27:56;94412.75;;;-1.20;90.68
68508;BME280;55510;49.560;19.090;2024-01-15T06:30:57;94412.50;;;-1.19;90.98
68508;BME280;55510;49.560;19.090;2024-01-15T06:33:58;94411.50;;;-0.99;90.02
68508;BME280;55510;49.560;19.090;2024-01-15T06:36:59;94407.44;;;-0.95;90.32
68508;BME280;55510;49.560;19.090;2024-01-15T06:39:59;94405.34;;;-1.23;92.89
68508;BME280;55510;49.560;19.090;2024-01-15T06:43:00;94409.47;;;-1.15;92.52
68508;BME280;55510;49.560;19.090;2024-01-15T06:46:01;94406.81;;;-1.27;93.85
68508;BME280;55510;49.560;19.090;2024-01-15T06:49:01;94418.59;;;-1.25;93.58
68508;BME280;55510;49.560;19.090;2024-01-15T06:52:02;94399.03;;;-1.34;94.83
68508;BME280;55510;49.560;19.090;2024-01-15T06:55:03;94406.78;;;-1.09;93.75
68508;BME280;55510;49.560;19.090;2024-01-15T06:58:04;94407.50;;;-1.02;93.08
68508;BME280;55510;49.560;19.090;2024-01-15T07:01:05;94418.22;;;-0.91;91.75
68508;BME280;55510;49.560;19.090;2024-01-15T07:04:06;94420.69;;;-0.78;90.69
68508;BME280;55510;49.560;19.090;2024-01-15T07:07:07;94427.94;;;-0.80;90.73
68508;BME280;55510;49.560;19.090;2024-01-15T07:10:07;94424.00;;;-0.70;89.68
68508;BME280;55510;49.560;19.090;2024-01-15T07:13:08;94424.19;;;-0.84;90.21
68508;BME280;55510;49.560;19.090;2024-01-15T07:16:09;94431.91;;;-0.77;90.98
68508;BME280;55510;49.560;19.090;2024-01-15T07:19:10;94433.06;;;-0.73;90.02
68508;BME280;55510;49.560;19.090;2024-01-15T07:22:11;94439.59;;;-0.64;90.03
68508;BME280;55510;49.560;19.090;2024-01-15T07:25:11;94429.28;;;-0.77;89.92
68508;BME280;55510;49.560;19.090;2024-01-15T07:28:13;94443.38;;;-0.78;89.36
68508;BME280;55510;49.560;19.090;2024-01-15T07:31:15;94436.34;;;-0.96;89.29
68508;BME280;55510;49.560;19.090;2024-01-15T07:34:17;94441.72;;;-0.73;89.11
68508;BME280;55510;49.560;19.090;2024-01-15T07:37:18;94436.03;;;-0.69;88.84
68508;BME280;55510;49.560;19.090;2024-01-15T07:40:19;94449.75;;;-0.74;88.97
68508;BME280;55510;49.560;19.090;2024-01-15T07:43:19;94442.78;;;-0.62;87.91
68508;BME280;55510;49.560;19.090;2024-01-15T07:46:20;94443.25;;;-0.53;87.51
68508;BME280;55510;49.560;19.090;2024-01-15T07:49:20;94425.78;;;-0.52;86.66
68508;BME280;55510;49.560;19.090;2024-01-15T07:52:21;94427.25;;;-0.45;85.60
68508;BME280;55510;49.560;19.090;2024-01-15T07:55:22;94428.50;;;-0.47;84.87
68508;BME280;55510;49.560;19.090;2024-01-15T07:58:23;94430.00;;;-0.70;85.46
68508;BME280;55510;49.560;19.090;2024-01-15T08:01:23;94448.72;;;-0.73;85.30
68508;BME280;55510;49.560;19.090;2024-01-15T08:04:24;94455.22;;;-0.76;84.21
68508;BME280;55510;49.560;19.090;2024-01-15T08:07:25;94448.69;;;-0.85;85.42
68508;BME280;55510;49.560;19.090;2024-01-15T08:10:26;94453.78;;;-1.09;85.45
68508;BME280;55510;49.560;19.090;2024-01-15T08:13:27;94449.38;;;-1.08;85.73
68508;BME280;55510;49.560;19.090;2024-01-15T08:16:28;94450.22;;;-1.14;86.48
68508;BME280;55510;49.560;19.090;2024-01-15T08:19:29;94442.81;;;-1.18;86.53
68508;BME280;55510;49.560;19.090;2024-01-15T08:22:30;94433.03;;;-1.04;85.97
68508;BME280;55510;49.560;19.090;2024-01-15T08:25:31;94433.69;;;-0.59;84.76
68508;BME280;55510;49.560;19.090;2024-01-15T08:28:31;94433.56;;;-0.64;83.95
68508;BME280;55510;49.560;19.090;2024-01-15T08:31:32;94434.94;;;-0.62;83.77
68508;BME280;55510;49.560;19.090;2024-01-15T08:34:33;94437.44;;;-0.24;83.18
68508;BME280;55510;49.560;19.090;2024-01-15T08:37:34;94444.97;;;-0.04;81.70
68508;BME280;55510;49.560;19.090;2024-01-15T08:40:34;94452.38;;;-0.01;81.60
68508;BME280;55510;49.560;19.090;2024-01-15T08:43:35;94449.94;;;0.28;80.93
68508;BME280;55510;49.560;19.090;2024-01-15T08:46:36;94456.19;;;0.27;80.41
68508;BME280;55510;49.560;19.090;2024-01-15T08:49:36;94452.09;;;0.43;79.85
68508;BME280;55510;49.560;19.090;2024-01-15T08:52:37;94442.88;;;0.28;78.03
68508;BME280;55510;49.560;19.090;2024-01-15T08:55:38;94451.78;;;-0.46;80.03
68508;BME280;55510;49.560;19.090;2024-01-15T08:58:38;94466.91;;;-0.05;80.02
68508;BME280;55510;49.560;19.090;2024-01-15T09:01:39;94464.13;;;0.08;78.99
68508;BME280;55510;49.560;19.090;2024-01-15T09:04:40;94468.69;;;-0.60;81.15
68508;BME280;55510;49.560;19.090;2024-01-15T09:07:41;94483.50;;;-0.11;80.43
68508;BME280;55510;49.560;19.090;2024-01-15T09:10:42;94500.34;;;-0.07;80.37
68508;BME280;55510;49.560;19.090;2024-01-15T09:13:42;94508.03;;;-0.74;82.94
68508;BME280;55510;49.560;19.090;2024-01-15T09:16:43;94515.53;;;-0.28;81.61
68508;BME280;55510;49.560;19.090;2024-01-15T09:19:44;94503.09;;;-0.63;83.57
68508;BME280;55510;49.560;19.090;2024-01-15T09:22:44;94509.03;;;-0.56;82.67
68508;BME280;55510;49.560;19.090;2024-01-15T09:25:45;94494.47;;;-0.64;82.75
68508;BME280;55510;49.560;19.090;2024-01-15T09:28:46;94499.81;;;-1.14;84.03
68508;BME280;55510;49.560;19.090;2024-01-15T09:31:47;94487.78;;;-0.97;84.25
68508;BME280;55510;49.560;19.090;2024-01-15T09:34:48;94495.59;;;-1.15;83.17
68508;BME280;55510;49.560;19.090;2024-01-15T09:37:48;94478.72;;;-0.76;84.80
68508;BME280;55510;49.560;19.090;2024-01-15T09:40:50;94484.97;;;-0.77;83.98
68508;BME280;55510;49.560;19.090;2024-01-15T09:43:51;94486.56;;;-0.76;82.88
68508;BME280;55510;49.560;19.090;2024-01-15T09:46:53;94489.75;;;-1.11;85.37
68508;BME280;55510;49.560;19.090;2024-01-15T09:49:55;94494.25;;;-0.99;84.13
68508;BME280;55510;49.560;19.090;2024-01-15T09:52:59;94502.06;;;-1.18;84.24
68508;BME280;55510;49.560;19.090;2024-01-15T09:55:59;94479.53;;;-1.56;85.82
68508;BME280;55510;49.560;19.090;2024-01-15T09:59:02;94482.75;;;-1.36;86.03
68508;BME280;55510;49.560;19.090;2024-01-15T10:02:05;94468.56;;;-0.84;84.81
68508;BME280;55510;49.560;19.090;2024-01-15T10:05:07;94474.38;;;-0.82;84.63
68508;BME280;55510;49.560;19.090;2024-01-15T10:08:09;94488.00;;;-0.80;83.65
68508;BME280;55510;49.560;19.090;2024-01-15T10:11:11;94471.91;;;-1.14;84.62
68508;BME280;55510;49.560;19.090;2024-01-15T10:14:12;94479.44;;;-0.68;83.55
68508;BME280;55510;49.560;19.090;2024-01-15T10:17:16;94474.66;;;-0.90;83.20
68508;BME280;55510;49.560;19.090;2024-01-15T10:20:17;94474.50;;;-0.95;83.36
68508;BME280;55510;49.560;19.090;2024-01-15T10:23:18;94480.38;;;-0.81;82.78
68508;BME280;55510;49.560;19.090;2024-01-15T10:26:24;94468.13;;;-0.99;83.69
68508;BME280;55510;49.560;19.090;2024-01-15T10:29:25;94478.22;;;-1.03;82.54
68508;BME280;55510;49.560;19.090;2024-01-15T10:32:25;94472.84;;;-1.08;82.19
68508;BME280;55510;49.560;19.090;2024-01-15T10:35:30;94477.56;;;-1.17;84.25
68508;BME280;55510;49.560;19.090;2024-01-15T10:38:31;94485.75;;;-0.95;83.42
68508;BME280;55510;49.560;19.090;2024-01-15T10:41:32;94485.06;;;-0.53;81.09
68508;BME280;55510;49.560;19.090;2024-01-15T10:44:33;94478.66;;;-0.38;80.96
68508;BME280;55510;49.560;19.090;2024-01-15T10:47:35;94483.03;;;-0.51;81.65
68508;BME280;55510;49.560;19.090;2024-01-15T10:50:36;94483.94;;;-0.94;82.21
68508;BME280;55510;49.560;19.090;2024-01-15T10:53:41;94501.94;;;-0.67;82.00
68508;BME280;55510;49.560;19.090;2024-01-15T10:56:43;94492.00;;;-0.96;81.85
68508;BME280;55510;49.560;19.090;2024-01-15T10:59:45;94482.47;;;-0.90;82.28
68508;BME280;55510;49.560;19.090;2024-01-15T11:02:46;94487.91;;;-0.73;82.17
68508;BME280;55510;49.560;19.090;2024-01-15T11:05:47;94484.03;;;-1.01;82.44
68508;BME280;55510;49.560;19.090;2024-01-15T11:08:49;94472.72;;;-1.57;84.84
68508;BME280;55510;49.560;19.090;2024-01-15T11:12:10;94473.03;;;-1.47;85.09
68508;BME280;55510;49.560;19.090;2024-01-15T11:15:19;94472.63;;;-1.25;84.20
68508;BME280;55510;49.560;19.090;2024-01-15T11:18:21;94479.50;;;-1.12;82.98
68508;BME280;55510;49.560;19.090;2024-01-15T11:21:24;94479.38;;;-0.99;82.61
68508;BME280;55510;49.560;19.090;2024-01-15T11:24:37;94478.88;;;-1.26;83.78
68508;BME280;55510;49.560;19.090;2024-01-15T11:27:49;94480.81;;;-1.40;84.36
68508;BME280;55510;49.560;19.090;2024-01-15T11:30:53;94489.75;;;-0.92;84.04
68508;BME280;55510;49.560;19.090;2024-01-15T11:33:54;94487.47;;;-1.44;84.28
68508;BME280;55510;49.560;19.090;2024-01-15T11:37:05;94481.97;;;-1.18;84.93
68508;BME280;55510;49.560;19.090;2024-01-15T11:40:05;94488.56;;;-0.96;83.38
68508;BME280;55510;49.560;19.090;2024-01-15T11:43:11;94473.06;;;-0.73;82.17
68508;BME280;55510;49.560;19.090;2024-01-15T11:46:17;94471.53;;;-1.18;83.35
68508;BME280;55510;49.560;19.090;2024-01-15T11:50:01;94464.72;;;-0.81;81.81
68508;BME280;55510;49.560;19.090;2024-01-15T11:53:03;94463.13;;;-0.82;82.24
68508;BME280;55510;49.560;19.090;2024-01-15T11:56:14;94449.19;;;-0.76;81.43
68508;BME280;55510;49.560;19.090;2024-01-15T11:59:16;94466.88;;;-0.60;82.14
68508;BME280;55510;49.560;19.090;2024-01-15T12:02:16;94458.78;;;-0.58;80.78
68508;BME280;55510;49.560;19.090;2024-01-15T12:05:18;94462.53;;;-0.66;81.01
68508;BME280;55510;49.560;19.090;2024-01-15T12:08:23;94460.91;;;-0.67;79.71
68508;BME280;55510;49.560;19.090;2024-01-15T12:11:25;94467.81;;;-0.91;81.36
68508;BME280;55510;49.560;19.090;2024-01-15T12:14:27;94455.72;;;-0.85;81.95
68508;BME280;55510;49.560;19.090;2024-01-15T12:17:29;94458.09;;;-0.65;80.85
68508;BME280;55510;49.560;19.090;2024-01-15T12:20:31;94468.53;;;-0.65;80.56
68508;BME280;55510;49.560;19.090;2024-01-15T12:23:33;94465.88;;;-0.96;81.73
68508;BME280;55510;49.560;19.090;2024-01-15T12:26:34;94470.31;;;-0.78;81.77
68508;BME280;55510;49.560;19.090;2024-01-15T12:29:35;94470.44;;;-0.73;80.94
68508;BME280;55510;49.560;19.090;2024-01-15T12:32:35;94464.84;;;-0.76;81.03
68508;BME280;55510;49.560;19.090;2024-01-15T12:35:37;94468.34;;;-0.82;80.55
68508;BME280;55510;49.560;19.090;2024-01-15T12:38:38;94469.06;;;-0.75;80.79
68508;BME280;55510;49.560;19.090;2024-01-15T12:41:39;94474.50;;;-0.77;80.68
68508;BME280;55510;49.560;19.090;2024-01-15T12:44:40;94480.19;;;-0.80;80.88
68508;BME280;55510;49.560;19.090;2024-01-15T12:47:41;94476.09;;;-0.76;80.51
68508;BME280;55510;49.560;19.090;2024-01-15T12:50:42;94461.00;;;-0.74;81.02
68508;BME280;55510;49.560;19.090;2024-01-15T12:53:43;94465.28;;;-0.61;79.70
68508;BME280;55510;49.560;19.090;2024-01-15T12:56:44;94459.31;;;-0.68;79.54
68508;BME280;55510;49.560;19.090;2024-01-15T12:59:45;94441.25;;;-0.69;79.62
68508;BME280;55510;49.560;19.090;2024-01-15T13:02:46;94446.22;;;-0.80;81.13
68508;BME280;55510;49.560;19.090;2024-01-15T13:05:47;94444.41;;;-0.98;80.59
68508;BME280;55510;49.560;19.090;2024-01-15T13:08:47;94444.50;;;-0.86;81.79
68508;BME280;55510;49.560;19.090;2024-01-15T13:11:48;94458.03;;;-0.77;81.13
68508;BME280;55510;49.560;19.090;2024-01-15T13:14:49;94450.44;;;-0.97;80.55
68508;BME280;55510;49.560;19.090;2024-01-15T13:17:49;94449.53;;;-0.73;80.60
68508;BME280;55510;49.560;19.090;2024-01-15T13:20:50;94447.78;;;-0.60;79.22
68508;BME280;55510;49.560;19.090;2024-01-15T13:23:51;94444.97;;;-0.47;78.72
68508;BME280;55510;49.560;19.090;2024-01-15T13:26:52;94438.84;;;-0.52;79.20
68508;BME280;55510;49.560;19.090;2024-01-15T13:29:52;94438.22;;;-0.66;78.84
68508;BME280;55510;49.560;19.090;2024-01-15T13:32:53;94439.72;;;-0.59;78.76
68508;BME280;55510;49.560;19.090;2024-01-15T13:35:54;94439.31;;;-0.74;80.06
68508;BME280;55510;49.560;19.090;2024-01-15T13:38:55;94439.09;;;-0.73;79.63
68508;BME280;55510;49.560;19.090;2024-01-15T13:41:55;94434.75;;;-0.79;80.73
68508;BME280;55510;49.560;19.090;2024-01-15T13:44:56;94438.97;;;-0.78;79.75
68508;BME280;55510;49.560;19.090;2024-01-15T13:47:57;94430.38;;;-0.66;79.22
68508;BME280;55510;49.560;19.090;2024-01-15T13:50:58;94430.25;;;-0.71;79.90
68508;BME280;55510;49.560;19.090;2024-01-15T13:53:59;94433.59;;;-0.83;80.16
68508;BME280;55510;49.560;19.090;2024-01-15T13:57:00;94431.00;;;-0.83;80.67
68508;BME280;55510;49.560;19.090;2024-01-15T14:00:01;94436.78;;;-0.81;80.00
68508;BME280;55510;49.560;19.090;2024-01-15T14:03:03;94437.25;;;-0.72;80.51
68508;BME280;55510;49.560;19.090;2024-01-15T14:06:04;94433.13;;;-0.61;80.06
68508;BME280;55510;49.560;19.090;2024-01-15T14:09:09;94438.53;;;-0.75;79.99
68508;BME280;55510;49.560;19.090;2024-01-15T14:12:10;94434.75;;;-0.79;80.80
68508;BME280;55510;49.560;19.090;2024-01-15T14:15:12;94436.69;;;-0.74;80.99
68508;BME280;55510;49.560;19.090;2024-01-15T14:18:13;94442.63;;;-0.67;80.63
68508;BME280;55510;49.560;19.090;2024-01-15T14:21:13;94439.31;;;-0.74;80.26
68508;BME280;55510;49.560;19.090;2024-01-15T14:24:15;94437.75;;;-0.63;80.29
68508;BME280;55510;49.560;19.090;2024-01-15T14:27:16;94446.50;;;-0.69;79.97
68508;BME280;55510;49.560;19.090;2024-01-15T14:30:17;94454.78;;;-0.73;80.63
68508;BME280;55510;49.560;19.090;2024-01-15T14:33:20;94461.19;;;-0.87;80.76
68508;BME280;55510;49.560;19.090;2024-01-15T14:36:21;94463.56;;;-0.85;81.43
68508;BME280;55510;49.560;19.090;2024-01-15T14:39:22;94452.34;;;-1.23;81.49
68508;BME280;55510;49.560;19.090;2024-01-15T14:42:24;94461.88;;;-0.98;81.32
68508;BME280;55510;49.560;19.090;2024-01-15T14:45:26;94453.56;;;-0.89;80.92
68508;BME280;55510;49.560;19.090;2024-01-15T14:48:27;94451.13;;;-0.90;80.40
68508;BME280;55510;49.560;19.090;2024-01-15T14:51:28;94455.06;;;-0.81;80.08
68508;BME280;55510;49.560;19.090;2024-01-15T14:54:29;94452.66;;;-0.82;79.67
68508;BME280;55510;49.560;19.090;2024-01-15T14:57:30;94454.63;;;-0.78;79.93
68508;BME280;55510;49.560;19.090;2024-01-15T15:00:30;94452.66;;;-0.82;79.58
68508;BME280;55510;49.560;19.090;2024-01-15T15:03:31;94456.44;;;-0.78;79.28
68508;BME280;55510;49.560;19.090;2024-01-15T15:06:33;94455.22;;;-0.76;79.33
68508;BME280;55510;49.560;19.090;2024-01-15T15:09:33;94460.75;;;-0.84;80.02
68508;BME280;55510;49.560;19.090;2024-01-15T15:12:34;94452.31;;;-0.86;80.27
68508;BME280;55510;49.560;19.090;2024-01-15T15:15:35;94447.31;;;-0.88;80.12
68508;BME280;55510;49.560;19.090;2024-01-15T15:18:36;94451.59;;;-0.93;81.15
68508;BME280;55510;49.560;19.090;2024-01-15T15:21:36;94452.09;;;-0.84;80.55
68508;BME280;55510;49.560;19.090;2024-01-15T15:24:38;94464.06;;;-0.95;80.74
68508;BME280;55510;49.560;19.090;2024-01-15T15:27:39;94465.66;;;-0.94;81.02
68508;BME280;55510;49.560;19.090;2024-01-15T15:30:40;94459.41;;;-0.93;81.28
68508;BME280;55510;49.560;19.090;2024-01-15T15:33:41;94465.97;;;-0.84;81.17
68508;BME280;55510;49.560;19.090;2024-01-15T15:36:41;94469.28;;;-0.95;81.27
68508;BME280;55510;49.560;19.090;2024-01-15T15:39:42;94474.03;;;-1.04;81.97
68508;BME280;55510;49.560;19.090;2024-01-15T15:42:43;94470.06;;;-1.13;82.38
68508;BME280;55510;49.560;19.090;2024-01-15T15:45:44;94468.41;;;-1.08;82.88
68508;BME280;55510;49.560;19.090;2024-01-15T15:48:44;94468.28;;;-1.13;82.86
68508;BME280;55510;49.560;19.090;2024-01-15T15:51:45;94460.81;;;-1.09;82.44
68508;BME280;55510;49.560;19.090;2024-01-15T15:54:46;94463.84;;;-1.12;83.00
68508;BME280;55510;49.560;19.090;2024-01-15T15:57:47;94461.03;;;-1.11;82.80
68508;BME280;55510;49.560;19.090;2024-01-15T16:00:47;94461.84;;;-1.10;83.41
68508;BME280;55510;49.560;19.090;2024-01-15T16:03:48;94464.66;;;-1.12;84.03
68508;BME280;55510;49.560;19.090;2024-01-15T16:06:48;94458.84;;;-1.14;83.81
68508;BME280;55510;49.560;19.090;2024-01-15T16:09:49;94464.28;;;-0.97;83.19
68508;BME280;55510;49.560;19.090;2024-01-15T16:12:50;94466.31;;;-0.99;83.53
68508;BME280;55510;49.560;19.090;2024-01-15T16:15:51;94466.81;;;-0.90;83.42
68508;BME280;55510;49.560;19.090;2024-01-15T16:18:51;94472.28;;;-0.92;83.45
68508;BME280;55510;49.560;19.090;2024-01-15T16:21:52;94473.94;;;-0.79;83.22
68508;BME280;55510;49.560;19.090;2024-01-15T16:24:55;94476.31;;;-0.77;82.55
68508;BME280;55510;49.560;19.090;2024-01-15T16:27:56;94475.53;;;-0.78;83.47
68508;BME280;55510;49.560;19.090;2024-01-15T16:30:57;94473.19;;;-0.67;82.99
68508;BME280;55510;49.560;19.090;2024-01-15T16:33:58;94472.75;;;-0.64;83.40
68508;BME280;55510;49.560;19.090;2024-01-15T16:36:58;94483.22;;;-0.83;84.72
68508;BME280;55510;49.560;19.090;2024-01-15T16:39:59;94479.16;;;-0.97;86.07
68508;BME280;55510;49.560;19.090;2024-01-15T16:43:00;94483.56;;;-1.17;87.24
68508;BME280;55510;49.560;19.090;2024-01-15T16:46:01;94488.78;;;-1.17;87.92
68508;BME280;55510;49.560;19.090;2024-01-15T16:49:02;94486.63;;;-1.01;87.13
68508;BME280;55510;49.560;19.090;2024-01-15T16:52:08;94479.72;;;-0.95;86.93
68508;BME280;55510;49.560;19.090;2024-01-15T16:55:09;94488.13;;;-0.93;86.76
68508;BME280;55510;49.560;19.090;2024-01-15T16:58:10;94480.69;;;-0.90;86.54
68508;BME280;55510;49.560;19.090;2024-01-15T17:01:11;94476.09;;;-0.94;86.58
68508;BME280;55510;49.560;19.090;2024-01-15T17:04:12;94470.16;;;-1.02;87.19
68508;BME280;55510;49.560;19.090;2024-01-15T17:07:12;94471.91;;;-0.95;87.00
68508;BME280;55510;49.560;19.090;2024-01-15T17:10:14;94472.06;;;-1.09;87.48
68508;BME280;55510;49.560;19.090;2024-01-15T17:13:15;94477.19;;;-1.21;87.83
68508;BME280;55510;49.560;19.090;2024-01-15T17:16:16;94481.63;;;-1.21;88.35
68508;BME280;55510;49.560;19.090;2024-01-15T17:19:17;94475.28;;;-1.32;88.50
68508;BME280;55510;49.560;19.090;2024-01-15T17:22:18;94470.44;;;-1.10;88.46
68508;BME280;55510;49.560;19.090;2024-01-15T17:25:19;94469.59;;;-1.22;88.94
68508;BME280;55510;49.560;19.090;2024-01-15T17:28:21;94474.00;;;-1.23;88.02
68508;BME280;55510;49.560;19.090;2024-01-15T17:31:22;94485.09;;;-1.09;87.56
68508;BME280;55510;49.560;19.090;2024-01-15T17:34:23;94490.91;;;-0.88;86.48
68508;BME280;55510;49.560;19.090;2024-01-15T17:37:23;94493.81;;;-0.78;85.50
68508;BME280;55510;49.560;19.090;2024-01-15T17:40:24;94490.03;;;-0.82;85.13
68508;BME280;55510;49.560;19.090;2024-01-15T17:43:25;94489.94;;;-0.75;84.55
68508;BME280;55510;49.560;19.090;2024-01-15T17:46:26;94498.38;;;-0.73;84.27
68508;BME280;55510;49.560;19.090;2024-01-15T17:49:28;94505.28;;;-0.79;85.65
68508;BME280;55510;49.560;19.090;2024-01-15T17:52:31;94500.13;;;-0.85;85.90
68508;BME280;55510;49.560;19.090;2024-01-15T17:55:31;94498.25;;;-0.97;87.74
68508;BME280;55510;49.560;19.090;2024-01-15T17:58:32;94501.63;;;-1.15;89.27
68508;BME280;55510;49.560;19.090;2024-01-15T18:01:33;94499.91;;;-1.03;90.26
68508;BME280;55510;49.560;19.090;2024-01-15T18:04:33;94502.94;;;-1.06;90.84
68508;BME280;55510;49.560;19.090;2024-01-15T18:07:34;94491.97;;;-1.14;92.08
68508;BME280;55510;49.560;19.090;2024-01-15T18:10:35;94499.31;;;-1.05;92.89
68508;BME280;55510;49.560;19.090;2024-01-15T18:13:35;94494.53;;;-1.08;92.87
68508;BME280;55510;49.560;19.090;2024-01-15T18:16:36;94511.25;;;-1.15;94.35
68508;BME280;55510;49.560;19.090;2024-01-15T18:19:37;94500.03;;;-1.16;95.69
68508;BME280;55510;49.560;19.090;2024-01-15T18:22:38;94496.47;;;-1.22;96.42
68508;BME280;55510;49.560;19.090;2024-01-15T18:25:39;94506.63;;;-1.13;96.45
68508;BME280;55510;49.560;19.090;2024-01-15T18:28:41;94505.69;;;-1.19;97.42
68508;BME280;55510;49.560;19.090;2024-01-15T18:31:41;94498.50;;;-1.24;98.10
68508;BME280;55510;49.560;19.090;2024-01-15T18:34:42;94505.53;;;-1.24;98.07
68508;BME280;55510;49.560;19.090;2024-01-15T18:37:44;94511.50;;;-1.17;98.03
68508;BME280;55510;49.560;19.090;2024-01-15T18:40:46;94513.09;;;-1.16;97.79
68508;BME280;55510;49.560;19.090;2024-01-15T18:43:46;94513.28;;;-1.18;98.23
68508;BME280;55510;49.560;19.090;2024-01-15T18:46:47;94518.78;;;-1.26;98.67
68508;BME280;55510;49.560;19.090;2024-01-15T18:49:48;94514.09;;;-1.17;98.92
68508;BME280;55510;49.560;19.090;2024-01-15T18:52:49;94522.38;;;-1.20;99.14
68508;BME280;55510;49.560;19.090;2024-01-15T18:55:49;94525.47;;;-1.30;100.00
68508;BME280;55510;49.560;19.090;2024-01-15T18:58:50;94513.97;;;-1.22;100.00
68508;BME280;55510;49.560;19.090;2024-01-15T19:01:51;94517.66;;;-1.11;99.91
68508;BME280;55510;49.560;19.090;2024-01-15T19:04:52;94522.53;;;-1.15;99.70
68508;BME280;55510;49.560;19.090;2024-01-15T19:07:53;94516.22;;;-1.07;99.27
68508;BME280;55510;49.560;19.090;2024-01-15T19:10:54;94517.44;;;-1.10;99.11